Vaxjo, Sweden

8:57 PM CEST on July 25, 2014 (GMT +0200)
Kronoberg (ESMX) Elev 610 ft | 56.93 °N, 14.73 °E | Change Station

Current weather conditions updated 7 minutes ago

Clear
Clear
77 °F
Feels Like 77 °F
N
2
Wind Variable Wind from Variable

Tomorrow is forecast to be Cooler than today. Thunderstorms.

Today
High -- | Low -- °F
--% Chance of Precip.
Yesterday
High -- | Low -- °F
Precip. -- in
4:46 AM 9:27 PM
Waning Crescent, 1% visible
Pressure 30.12 in
Visibility -9999.0 miles
Clouds
Dew Point 55 °F
Humidity 47%
Rainfall 0.00 in
Snow Depth Not available.
UV Not available.
Pollen Not available.
Air Quality Not available.
Flu Activity Not available.
METAR ESMX 251850Z VRB02KT CAVOK 25/13 Q1020

More Conditions Fewer Conditions

Pressure 30.12 in
Visibility -9999.0 miles
Clouds
Dew Point 55 °F
Humidity 47%
Rainfall 0.00 in
Snow Depth Not available.
UV Not available.
Pollen Not available.
Air Quality Not available.
Flu Activity Not available.
METAR ESMX 251850Z VRB02KT CAVOK 25/13 Q1020

More Conditions Fewer Conditions

10-Day Weather Forecast

Almanac

Astronomy

Jul. 25, 2014 Rise Set
Actual Time 4:46 AM CEST 9:27 PM CEST
Civil Twilight 3:52 AM CEST 10:21 PM CEST
Nautical Twilight 2:16 AM CEST 11:53 PM CEST
Astronomical Twilight Sun does not rise Sun does not rise
Moon 3:38 AM CEST 8:01 PM CEST
Length of Visible Light 18h 29m
Length of Day
16h 41m
Tomorrow will be 3m 43s shorter.
Waning Crescent, 1% of the Moon is Illuminated
Today
Waning Crescent
Jul 26
New
Aug 3
First Quarter
Aug 10
Full
Aug 17
Last Quarter

Today's Extremes

Country Highs Country Lows

Community

WunderPhotos

Upload Photos

1,737,371 photos uploaded!

Nearby

Snow Depth

Not available.

Earthquake Activity

City Distance Mag. Time & Date
No recent earthquake activity has been reported nearby.
Minimum magnitude displayed is 2.5.

Coastal Water Temperatures

Place Temperature
No Stations Reporting

Nearby Weather Stations

Station Location Temp. Heat Index Dew Point Humidity Wind Precip. Elev Updated Type
Vaxjo VMV AB 82.0 °F 82 °F 59 °F 46% ESE  at  0.0 mph 0.00 in / hr 587 ft 8:46 PM CEST Normal
Moheda, Moheda 75.1 °F 77 °F 60 °F 59% ENE  at  0.0 mph 0.00 in / hr 640 ft 8:55 PM CEST Normal

Show More Stations Show Fewer Stations